sensor_id;sensor_type;location;lat;lon;timestamp;pressure;altitude;pressure_sealevel;temperature;humidity
64025;BME280;50266;57.446;26.936;2023-05-22T00:00:06;100274.83;;;10.33;100.0
64025;BME280;50266;57.446;26.936;2023-05-22T00:01:06;100277.76;;;10.32;100.0
64025;BME280;50266;57.446;26.936;2023-05-22T00:02:07;100281.02;;;10.35;100.0
64025;BME280;50266;57.446;26.936;2023-05-22T00:03:06;100278.11;;;10.25;100.0
64025;BME280;50266;57.446;26.936;2023-05-22T00:04:06;100275.35;;;10.13;100.0
64025;BME280;50266;57.446;26.936;2023-05-22T00:05:10;100277.43;;;10.14;100.0
64025;BME280;50266;57.446;26.936;2023-05-22T00:06:07;100274.5;;;10.2;100.0
64025;BME280;50266;57.446;26.936;2023-05-22T00:07:07;100273.78;;;10.22;100.0
64025;BME280;50266;57.446;26.936;2023-05-22T00:08:07;100271.23;;;10.32;100.0
64025;BME280;50266;57.446;26.936;2023-05-22T00:09:07;100273.23;;;10.25;100.0
64025;BME280;50266;57.446;26.936;2023-05-22T00:10:08;100269.37;;;10.26;100.0
64025;BME280;50266;57.446;26.936;2023-05-22T00:11:07;100272.26;;;10.3;100.0
64025;BME280;50266;57.446;26.936;2023-05-22T00:12:08;100275.2;;;10.19;100.0
64025;BME280;50266;57.446;26.936;2023-05-22T00:13:07;100272.53;;;10.25;100.0
64025;BME280;50266;57.446;26.936;2023-05-22T00:14:08;100273.67;;;10.24;100.0
64025;BME280;50266;57.446;26.936;2023-05-22T00:15:08;100273.97;;;10.16;100.0
64025;BME280;50266;57.446;26.936;2023-05-22T00:16:07;100276.16;;;10.21;100.0
64025;BME280;50266;57.446;26.936;2023-05-22T00:17:07;100274.95;;;10.26;100.0
64025;BME280;50266;57.446;26.936;2023-05-22T00:18:07;100273.97;;;10.24;100.0
64025;BME280;50266;57.446;26.936;2023-05-22T00:19:08;100271.97;;;10.16;100.0
64025;BME280;50266;57.446;26.936;2023-05-22T00:20:08;100273.17;;;10.15;100.0
64025;BME280;50266;57.446;26.936;2023-05-22T00:21:08;100270.05;;;10.19;100.0
64025;BME280;50266;57.446;26.936;2023-05-22T00:22:08;100270.44;;;10.26;100.0
64025;BME280;50266;57.446;26.936;2023-05-22T00:23:08;100270.22;;;10.32;100.0
64025;BME280;50266;57.446;26.936;2023-05-22T00:24:08;100270.47;;;10.25;100.0
64025;BME280;50266;57.446;26.936;2023-05-22T00:25:08;100268.52;;;10.24;100.0
64025;BME280;50266;57.446;26.936;2023-05-22T00:26:08;100268.09;;;10.16;100.0
64025;BME280;50266;57.446;26.936;2023-05-22T00:27:08;100269.81;;;10.12;100.0
64025;BME280;50266;57.446;26.936;2023-05-22T00:28:08;100271.66;;;10.18;100.0
64025;BME280;50266;57.446;26.936;2023-05-22T00:29:08;100268.14;;;10.18;100.0
64025;BME280;50266;57.446;26.936;2023-05-22T00:30:08;100268.61;;;10.04;100.0
64025;BME280;50266;57.446;26.936;2023-05-22T00:31:08;100266.77;;;10.02;100.0
64025;BME280;50266;57.446;26.936;2023-05-22T00:32:08;100263.76;;;10.0;100.0
64025;BME280;50266;57.446;26.936;2023-05-22T00:33:08;100264.25;;;10.1;100.0
64025;BME280;50266;57.446;26.936;2023-05-22T00:34:08;100263.21;;;10.15;100.0
64025;BME280;50266;57.446;26.936;2023-05-22T00:35:08;100262.12;;;10.15;100.0
64025;BME280;50266;57.446;26.936;2023-05-22T00:36:08;100260.31;;;10.13;100.0
64025;BME280;50266;57.446;26.936;2023-05-22T00:37:08;100261.91;;;10.13;100.0
64025;BME280;50266;57.446;26.936;2023-05-22T00:38:08;100261.23;;;10.1;100.0
64025;BME280;50266;57.446;26.936;2023-05-22T00:39:08;100260.04;;;10.09;100.0
64025;BME280;50266;57.446;26.936;2023-05-22T00:40:08;100260.48;;;10.11;100.0
64025;BME280;50266;57.446;26.936;2023-05-22T00:41:08;100260.34;;;10.09;100.0
64025;BME280;50266;57.446;26.936;2023-05-22T00:42:08;100262.28;;;10.11;100.0
64025;BME280;50266;57.446;26.936;2023-05-22T00:43:08;100261.03;;;10.14;100.0
64025;BME280;50266;57.446;26.936;2023-05-22T00:44:08;100258.89;;;10.12;100.0
64025;BME280;50266;57.446;26.936;2023-05-22T00:45:08;100261.6;;;10.13;100.0
64025;BME280;50266;57.446;26.936;2023-05-22T00:46:08;100256.98;;;10.05;100.0
64025;BME280;50266;57.446;26.936;2023-05-22T00:47:08;100257.28;;;10.09;100.0
64025;BME280;50266;57.446;26.936;2023-05-22T00:48:08;100260.61;;;10.05;100.0
64025;BME280;50266;57.446;26.936;2023-05-22T00:49:08;100256.97;;;10.07;100.0
64025;BME280;50266;57.446;26.936;2023-05-22T00:50:09;100259.61;;;9.96;100.0
64025;BME280;50266;57.446;26.936;2023-05-22T00:51:08;100257.83;;;10.0;100.0
64025;BME280;50266;57.446;26.936;2023-05-22T00:52:09;100257.95;;;9.97;100.0
64025;BME280;50266;57.446;26.936;2023-05-22T00:53:08;100254.19;;;9.92;100.0
64025;BME280;50266;57.446;26.936;2023-05-22T00:54:08;100259.92;;;9.95;100.0
64025;BME280;50266;57.446;26.936;2023-05-22T00:55:09;100260.59;;;9.94;100.0
64025;BME280;50266;57.446;26.936;2023-05-22T00:56:08;100255.83;;;9.92;100.0
64025;BME280;50266;57.446;26.936;2023-05-22T00:57:08;100256.64;;;9.93;100.0
64025;BME280;50266;57.446;26.936;2023-05-22T00:58:09;100258.25;;;9.72;100.0
64025;BME280;50266;57.446;26.936;2023-05-22T00:59:09;100256.23;;;9.82;100.0
64025;BME280;50266;57.446;26.936;2023-05-22T01:00:09;100252.78;;;9.91;100.0
64025;BME280;50266;57.446;26.936;2023-05-22T01:01:09;100253.57;;;9.96;100.0
64025;BME280;50266;57.446;26.936;2023-05-22T01:02:09;100255.16;;;9.88;100.0
64025;BME280;50266;57.446;26.936;2023-05-22T01:03:09;100261.94;;;9.81;100.0
64025;BME280;50266;57.446;26.936;2023-05-22T01:04:09;100259.62;;;9.86;100.0
64025;BME280;50266;57.446;26.936;2023-05-22T01:05:09;100254.92;;;9.78;100.0
64025;BME280;50266;57.446;26.936;2023-05-22T01:06:10;100254.46;;;9.83;100.0
64025;BME280;50266;57.446;26.936;2023-05-22T01:07:09;100258.14;;;9.93;100.0
64025;BME280;50266;57.446;26.936;2023-05-22T01:08:09;100255.95;;;9.74;100.0
64025;BME280;50266;57.446;26.936;2023-05-22T01:09:09;100255.56;;;9.96;100.0
64025;BME280;50266;57.446;26.936;2023-05-22T01:10:09;100254.22;;;9.84;100.0
64025;BME280;50266;57.446;26.936;2023-05-22T01:11:13;100253.5;;;9.82;100.0
64025;BME280;50266;57.446;26.936;2023-05-22T01:12:14;100256.12;;;9.77;100.0
64025;BME280;50266;57.446;26.936;2023-05-22T01:14:16;100256.36;;;9.67;100.0
64025;BME280;50266;57.446;26.936;2023-05-22T01:17:31;100254.83;;;9.82;100.0
64025;BME280;50266;57.446;26.936;2023-05-22T01:18:42;100256.67;;;9.94;100.0
64025;BME280;50266;57.446;26.936;2023-05-22T01:19:35;100253.35;;;9.65;100.0
64025;BME280;50266;57.446;26.936;2023-05-22T01:20:30;100254.45;;;9.74;100.0
64025;BME280;50266;57.446;26.936;2023-05-22T01:21:33;100255.94;;;9.76;100.0
64025;BME280;50266;57.446;26.936;2023-05-22T01:24:48;100264.49;;;9.48;100.0
64025;BME280;50266;57.446;26.936;2023-05-22T01:26:48;100258.98;;;9.49;100.0
64025;BME280;50266;57.446;26.936;2023-05-22T01:27:44;100259.37;;;9.79;100.0
64025;BME280;50266;57.446;26.936;2023-05-22T01:28:59;100254.3;;;9.81;100.0
64025;BME280;50266;57.446;26.936;2023-05-22T01:29:58;100249.48;;;9.68;100.0
64025;BME280;50266;57.446;26.936;2023-05-22T01:31:00;100254.42;;;9.78;100.0
64025;BME280;50266;57.446;26.936;2023-05-22T01:31:58;100257.42;;;9.95;100.0
64025;BME280;50266;57.446;26.936;2023-05-22T01:32:57;100255.42;;;9.78;100.0
64025;BME280;50266;57.446;26.936;2023-05-22T01:33:59;100260.7;;;9.61;100.0
64025;BME280;50266;57.446;26.936;2023-05-22T01:34:58;100257.23;;;9.21;100.0
64025;BME280;50266;57.446;26.936;2023-05-22T01:35:58;100261.01;;;9.05;100.0
64025;BME280;50266;57.446;26.936;2023-05-22T01:36:58;100262.88;;;9.0;100.0
64025;BME280;50266;57.446;26.936;2023-05-22T01:37:58;100266.5;;;8.86;100.0
64025;BME280;50266;57.446;26.936;2023-05-22T01:38:58;100262.52;;;9.1;100.0
64025;BME280;50266;57.446;26.936;2023-05-22T01:39:58;100262.16;;;9.45;100.0
64025;BME280;50266;57.446;26.936;2023-05-22T01:40:58;100262.08;;;8.8;100.0
64025;BME280;50266;57.446;26.936;2023-05-22T01:41:58;100262.91;;;8.68;100.0
64025;BME280;50266;57.446;26.936;2023-05-22T01:42:58;100260.05;;;9.22;100.0
64025;BME280;50266;57.446;26.936;2023-05-22T01:43:58;100254.47;;;9.22;100.0
64025;BME280;50266;57.446;26.936;2023-05-22T01:44:58;100259.95;;;8.72;100.0
64025;BME280;50266;57.446;26.936;2023-05-22T01:45:58;100257.7;;;8.68;100.0
64025;BME280;50266;57.446;26.936;2023-05-22T01:46:58;100257.98;;;8.62;100.0
64025;BME280;50266;57.446;26.936;2023-05-22T01:47:58;100258.32;;;8.57;100.0
64025;BME280;50266;57.446;26.936;2023-05-22T01:48:58;100258.89;;;8.5;100.0
64025;BME280;50266;57.446;26.936;2023-05-22T01:49:58;100253.22;;;8.36;100.0
64025;BME280;50266;57.446;26.936;2023-05-22T01:51:10;100253.41;;;8.63;100.0
64025;BME280;50266;57.446;26.936;2023-05-22T01:52:07;100251.45;;;8.99;100.0
64025;BME280;50266;57.446;26.936;2023-05-22T01:53:09;100246.77;;;9.02;100.0
64025;BME280;50266;57.446;26.936;2023-05-22T01:54:09;100246.86;;;8.84;100.0
64025;BME280;50266;57.446;26.936;2023-05-22T01:55:14;100244.06;;;8.9;100.0
64025;BME280;50266;57.446;26.936;2023-05-22T01:56:19;100242.41;;;8.86;100.0
64025;BME280;50266;57.446;26.936;2023-05-22T01:57:18;100244.32;;;8.79;100.0
64025;BME280;50266;57.446;26.936;2023-05-22T01:59:13;100242.84;;;8.85;100.0
64025;BME280;50266;57.446;26.936;2023-05-22T02:00:11;100247.17;;;8.77;100.0
64025;BME280;50266;57.446;26.936;2023-05-22T02:01:11;100246.89;;;8.35;100.0
64025;BME280;50266;57.446;26.936;2023-05-22T02:02:11;100247.51;;;9.07;100.0
64025;BME280;50266;57.446;26.936;2023-05-22T02:03:12;100254.61;;;8.73;100.0
64025;BME280;50266;57.446;26.936;2023-05-22T02:04:11;100257.16;;;8.24;100.0
64025;BME280;50266;57.446;26.936;2023-05-22T02:05:11;100254.72;;;8.09;100.0
64025;BME280;50266;57.446;26.936;2023-05-22T02:06:12;100250.97;;;8.35;100.0
64025;BME280;50266;57.446;26.936;2023-05-22T02:07:11;100253.16;;;8.81;100.0
64025;BME280;50266;57.446;26.936;2023-05-22T02:08:11;100253.15;;;9.14;100.0
64025;BME280;50266;57.446;26.936;2023-05-22T02:09:11;100252.06;;;9.2;100.0
64025;BME280;50266;57.446;26.936;2023-05-22T02:10:11;100245.7;;;9.1;100.0
64025;BME280;50266;57.446;26.936;2023-05-22T02:11:11;100246.9;;;9.25;100.0
64025;BME280;50266;57.446;26.936;2023-05-22T02:12:11;100246.0;;;9.45;100.0
64025;BME280;50266;57.446;26.936;2023-05-22T02:13:11;100242.24;;;9.53;100.0
64025;BME280;50266;57.446;26.936;2023-05-22T02:14:11;100241.48;;;9.34;100.0
64025;BME280;50266;57.446;26.936;2023-05-22T02:15:11;100238.92;;;9.36;100.0
64025;BME280;50266;57.446;26.936;2023-05-22T02:16:11;100237.97;;;9.52;100.0
64025;BME280;50266;57.446;26.936;2023-05-22T02:17:11;100235.49;;;9.66;100.0
64025;BME280;50266;57.446;26.936;2023-05-22T02:18:11;100230.29;;;9.7;100.0
64025;BME280;50266;57.446;26.936;2023-05-22T02:19:12;100235.23;;;9.65;100.0
64025;BME280;50266;57.446;26.936;2023-05-22T02:20:13;100232.86;;;9.73;100.0
64025;BME280;50266;57.446;26.936;2023-05-22T02:21:11;100230.66;;;9.8;100.0
64025;BME280;50266;57.446;26.936;2023-05-22T02:22:11;100227.28;;;9.79;100.0
64025;BME280;50266;57.446;26.936;2023-05-22T02:23:11;100229.86;;;9.79;100.0
64025;BME280;50266;57.446;26.936;2023-05-22T02:24:12;100232.2;;;9.78;100.0
64025;BME280;50266;57.446;26.936;2023-05-22T02:25:12;100231.17;;;9.77;100.0
64025;BME280;50266;57.446;26.936;2023-05-22T02:26:11;100230.64;;;9.46;100.0
64025;BME280;50266;57.446;26.936;2023-05-22T02:27:11;100229.47;;;9.63;100.0
64025;BME280;50266;57.446;26.936;2023-05-22T02:28:11;100228.88;;;9.69;100.0
64025;BME280;50266;57.446;26.936;2023-05-22T02:29:11;100226.56;;;9.76;100.0
64025;BME280;50266;57.446;26.936;2023-05-22T02:30:12;100227.02;;;9.74;100.0
64025;BME280;50266;57.446;26.936;2023-05-22T02:31:11;100222.62;;;9.85;100.0
64025;BME280;50266;57.446;26.936;2023-05-22T02:32:11;100229.53;;;9.7;100.0
64025;BME280;50266;57.446;26.936;2023-05-22T02:33:11;100225.65;;;9.65;100.0
64025;BME280;50266;57.446;26.936;2023-05-22T02:34:11;100224.03;;;9.58;100.0
64025;BME280;50266;57.446;26.936;2023-05-22T02:35:11;100223.5;;;9.58;100.0
64025;BME280;50266;57.446;26.936;2023-05-22T02:36:12;100224.34;;;9.67;100.0
64025;BME280;50266;57.446;26.936;2023-05-22T02:37:12;100223.82;;;9.7;100.0
64025;BME280;50266;57.446;26.936;2023-05-22T02:38:12;100224.27;;;9.74;100.0
64025;BME280;50266;57.446;26.936;2023-05-22T02:39:12;100222.34;;;9.73;100.0
64025;BME280;50266;57.446;26.936;2023-05-22T02:40:12;100221.77;;;9.74;100.0
64025;BME280;50266;57.446;26.936;2023-05-22T02:41:12;100224.59;;;9.68;100.0
64025;BME280;50266;57.446;26.936;2023-05-22T02:42:12;100228.08;;;9.24;100.0
64025;BME280;50266;57.446;26.936;2023-05-22T02:43:12;100229.62;;;9.1;100.0
64025;BME280;50266;57.446;26.936;2023-05-22T02:44:12;100240.14;;;8.8;100.0
64025;BME280;50266;57.446;26.936;2023-05-22T02:45:12;100233.75;;;8.79;100.0
64025;BME280;50266;57.446;26.936;2023-05-22T02:46:12;100236.92;;;8.94;100.0
64025;BME280;50266;57.446;26.936;2023-05-22T02:47:12;100227.97;;;9.25;100.0
64025;BME280;50266;57.446;26.936;2023-05-22T02:48:12;100228.2;;;9.37;100.0
64025;BME280;50266;57.446;26.936;2023-05-22T02:49:12;100219.91;;;9.48;100.0
64025;BME280;50266;57.446;26.936;2023-05-22T02:50:12;100215.64;;;9.77;100.0
64025;BME280;50266;57.446;26.936;2023-05-22T02:51:12;100215.22;;;9.8;100.0
64025;BME280;50266;57.446;26.936;2023-05-22T02:52:12;100212.42;;;9.95;100.0
64025;BME280;50266;57.446;26.936;2023-05-22T02:53:12;100217.19;;;10.05;100.0
64025;BME280;50266;57.446;26.936;2023-05-22T02:54:13;100224.53;;;9.9;100.0
64025;BME280;50266;57.446;26.936;2023-05-22T02:55:12;100221.93;;;9.75;100.0
64025;BME280;50266;57.446;26.936;2023-05-22T02:56:12;100224.63;;;9.47;100.0
64025;BME280;50266;57.446;26.936;2023-05-22T02:57:12;100218.14;;;9.4;100.0
64025;BME280;50266;57.446;26.936;2023-05-22T02:58:12;100221.41;;;9.53;100.0
64025;BME280;50266;57.446;26.936;2023-05-22T02:59:12;100224.55;;;9.7;100.0
64025;BME280;50266;57.446;26.936;2023-05-22T03:00:12;100225.38;;;9.83;100.0
64025;BME280;50266;57.446;26.936;2023-05-22T03:01:12;100225.8;;;9.82;100.0
64025;BME280;50266;57.446;26.936;2023-05-22T03:02:12;100225.56;;;9.73;100.0
64025;BME280;50266;57.446;26.936;2023-05-22T03:03:12;100222.05;;;9.71;100.0
64025;BME280;50266;57.446;26.936;2023-05-22T03:04:12;100224.72;;;9.79;100.0
64025;BME280;50266;57.446;26.936;2023-05-22T03:05:12;100224.92;;;9.96;100.0
64025;BME280;50266;57.446;26.936;2023-05-22T03:06:12;100224.42;;;9.93;100.0
64025;BME280;50266;57.446;26.936;2023-05-22T03:07:12;100224.47;;;9.91;100.0
64025;BME280;50266;57.446;26.936;2023-05-22T03:08:12;100226.75;;;9.83;100.0
64025;BME280;50266;57.446;26.936;2023-05-22T03:09:12;100222.48;;;9.81;100.0
64025;BME280;50266;57.446;26.936;2023-05-22T03:10:12;100226.08;;;9.84;100.0
64025;BME280;50266;57.446;26.936;2023-05-22T03:11:12;100224.29;;;9.83;100.0
64025;BME280;50266;57.446;26.936;2023-05-22T03:12:12;100223.19;;;9.89;100.0
64025;BME280;50266;57.446;26.936;2023-05-22T03:13:12;100221.09;;;10.02;100.0
64025;BME280;50266;57.446;26.936;2023-05-22T03:14:12;100222.41;;;9.99;100.0
64025;BME280;50266;57.446;26.936;2023-05-22T03:15:12;100216.81;;;9.97;100.0
64025;BME280;50266;57.446;26.936;2023-05-22T03:16:12;100220.27;;;10.0;100.0
64025;BME280;50266;57.446;26.936;2023-05-22T03:17:12;100222.37;;;9.96;100.0
64025;BME280;50266;57.446;26.936;2023-05-22T03:18:12;100222.82;;;9.94;100.0
64025;BME280;50266;57.446;26.936;2023-05-22T03:19:13;100219.95;;;9.96;100.0
64025;BME280;50266;57.446;26.936;2023-05-22T03:20:12;100224.46;;;9.92;100.0
64025;BME280;50266;57.446;26.936;2023-05-22T03:21:12;100224.05;;;9.93;100.0
64025;BME280;50266;57.446;26.936;2023-05-22T03:22:12;100221.14;;;10.08;100.0
64025;BME280;50266;57.446;26.936;2023-05-22T03:23:12;100217.84;;;10.05;100.0
64025;BME280;50266;57.446;26.936;2023-05-22T03:24:12;100208.26;;;10.08;100.0
64025;BME280;50266;57.446;26.936;2023-05-22T03:25:12;100209.19;;;10.15;100.0
64025;BME280;50266;57.446;26.936;2023-05-22T03:26:12;100208.05;;;10.18;100.0
64025;BME280;50266;57.446;26.936;2023-05-22T03:27:13;100210.97;;;10.28;100.0
64025;BME280;50266;57.446;26.936;2023-05-22T03:28:13;100211.12;;;10.32;100.0
64025;BME280;50266;57.446;26.936;2023-05-22T03:29:12;100208.95;;;10.37;100.0
64025;BME280;50266;57.446;26.936;2023-05-22T03:30:13;100211.25;;;10.4;100.0
64025;BME280;50266;57.446;26.936;2023-05-22T03:31:12;100209.28;;;10.4;100.0
64025;BME280;50266;57.446;26.936;2023-05-22T03:32:12;100210.13;;;10.42;100.0
64025;BME280;50266;57.446;26.936;2023-05-22T03:33:12;100210.15;;;10.47;100.0
64025;BME280;50266;57.446;26.936;2023-05-22T03:34:12;100210.84;;;10.47;100.0
64025;BME280;50266;57.446;26.936;2023-05-22T03:35:12;100215.91;;;10.56;100.0
64025;BME280;50266;57.446;26.936;2023-05-22T03:36:12;100218.02;;;10.61;100.0
64025;BME280;50266;57.446;26.936;2023-05-22T03:37:12;100216.88;;;10.55;100.0
64025;BME280;50266;57.446;26.936;2023-05-22T03:38:13;100219.77;;;10.54;100.0
64025;BME280;50266;57.446;26.936;2023-05-22T03:39:13;100218.34;;;10.54;100.0
64025;BME280;50266;57.446;26.936;2023-05-22T03:40:13;100215.87;;;10.47;100.0
64025;BME280;50266;57.446;26.936;2023-05-22T03:41:13;100215.59;;;10.4;100.0
64025;BME280;50266;57.446;26.936;2023-05-22T03:42:13;100215.39;;;10.44;100.0
64025;BME280;50266;57.446;26.936;2023-05-22T03:43:13;100216.75;;;10.42;100.0
64025;BME280;50266;57.446;26.936;2023-05-22T03:44:13;100211.44;;;10.48;100.0
64025;BME280;50266;57.446;26.936;2023-05-22T03:45:13;100215.45;;;10.48;100.0
64025;BME280;50266;57.446;26.936;2023-05-22T03:46:13;100212.72;;;10.48;100.0
64025;BME280;50266;57.446;26.936;2023-05-22T03:47:13;100211.66;;;10.46;100.0
64025;BME280;50266;57.446;26.936;2023-05-22T03:48:13;100214.8;;;10.41;100.0
64025;BME280;50266;57.446;26.936;2023-05-22T03:49:13;100214.9;;;10.44;100.0
64025;BME280;50266;57.446;26.936;2023-05-22T03:50:13;100211.47;;;10.41;100.0
64025;BME280;50266;57.446;26.936;2023-05-22T03:51:13;100209.7;;;10.41;100.0
64025;BME280;50266;57.446;26.936;2023-05-22T03:52:13;100211.73;;;10.41;100.0
64025;BME280;50266;57.446;26.936;2023-05-22T03:53:13;100211.68;;;10.4;100.0
64025;BME280;50266;57.446;26.936;2023-05-22T03:54:13;100211.39;;;10.39;100.0
64025;BME280;50266;57.446;26.936;2023-05-22T03:55:14;100210.97;;;10.34;100.0
64025;BME280;50266;57.446;26.936;2023-05-22T03:56:13;100212.76;;;10.32;100.0
64025;BME280;50266;57.446;26.936;2023-05-22T03:57:13;100212.4;;;10.35;100.0
64025;BME280;50266;57.446;26.936;2023-05-22T03:58:13;100213.77;;;10.34;100.0
64025;BME280;50266;57.446;26.936;2023-05-22T03:59:13;100208.77;;;10.32;100.0
64025;BME280;50266;57.446;26.936;2023-05-22T04:00:14;100212.45;;;10.32;100.0
64025;BME280;50266;57.446;26.936;2023-05-22T04:01:13;100206.73;;;10.41;100.0
64025;BME280;50266;57.446;26.936;2023-05-22T04:02:13;100205.89;;;10.48;100.0
64025;BME280;50266;57.446;26.936;2023-05-22T04:03:13;100208.0;;;10.56;100.0
64025;BME280;50266;57.446;26.936;2023-05-22T04:04:13;100208.45;;;10.6;100.0
64025;BME280;50266;57.446;26.936;2023-05-22T04:05:13;100204.72;;;10.7;100.0
64025;BME280;50266;57.446;26.936;2023-05-22T04:06:13;100206.6;;;10.77;100.0
64025;BME280;50266;57.446;26.936;2023-05-22T04:07:14;100203.11;;;10.8;100.0
64025;BME280;50266;57.446;26.936;2023-05-22T04:08:13;100202.53;;;10.81;100.0
64025;BME280;50266;57.446;26.936;2023-05-22T04:09:13;100203.48;;;10.79;100.0
64025;BME280;50266;57.446;26.936;2023-05-22T04:10:14;100202.05;;;10.79;100.0
64025;BME280;50266;57.446;26.936;2023-05-22T04:11:14;100198.95;;;10.77;100.0
64025;BME280;50266;57.446;26.936;2023-05-22T04:12:14;100195.95;;;10.75;100.0
64025;BME280;50266;57.446;26.936;2023-05-22T04:13:14;100196.83;;;10.83;100.0
64025;BME280;50266;57.446;26.936;2023-05-22T04:14:14;100194.65;;;10.87;100.0
64025;BME280;50266;57.446;26.936;2023-05-22T04:15:14;100194.84;;;10.92;100.0
64025;BME280;50266;57.446;26.936;2023-05-22T04:16:14;100194.76;;;10.97;100.0
64025;BME280;50266;57.446;26.936;2023-05-22T04:17:14;100194.48;;;10.92;100.0
64025;BME280;50266;57.446;26.936;2023-05-22T04:18:14;100194.05;;;10.9;100.0
64025;BME280;50266;57.446;26.936;2023-05-22T04:19:14;100193.95;;;10.87;100.0
64025;BME280;50266;57.446;26.936;2023-05-22T04:20:14;100187.84;;;10.86;100.0
64025;BME280;50266;57.446;26.936;2023-05-22T04:21:14;100191.28;;;10.79;100.0
64025;BME280;50266;57.446;26.936;2023-05-22T04:22:14;100192.21;;;10.8;100.0
64025;BME280;50266;57.446;26.936;2023-05-22T04:23:14;100190.12;;;10.79;100.0
64025;BME280;50266;57.446;26.936;2023-05-22T04:24:14;100188.91;;;10.8;100.0
64025;BME280;50266;57.446;26.936;2023-05-22T04:25:14;100189.41;;;10.77;100.0
64025;BME280;50266;57.446;26.936;2023-05-22T04:26:14;100193.44;;;10.75;100.0
64025;BME280;50266;57.446;26.936;2023-05-22T04:27:14;100193.16;;;10.87;100.0
64025;BME280;50266;57.446;26.936;2023-05-22T04:28:14;100190.36;;;10.95;100.0
64025;BME280;50266;57.446;26.936;2023-05-22T04:29:14;100192.42;;;10.92;100.0
64025;BME280;50266;57.446;26.936;2023-05-22T04:30:14;100189.51;;;10.89;100.0
64025;BME280;50266;57.446;26.936;2023-05-22T04:31:14;100193.35;;;10.81;100.0
64025;BME280;50266;57.446;26.936;2023-05-22T04:32:14;100191.94;;;10.78;100.0
64025;BME280;50266;57.446;26.936;2023-05-22T04:33:14;100195.56;;;10.81;100.0
64025;BME280;50266;57.446;26.936;2023-05-22T04:34:14;100192.47;;;10.8;100.0
64025;BME280;50266;57.446;26.936;2023-05-22T04:35:14;100196.16;;;10.77;100.0
64025;BME280;50266;57.446;26.936;2023-05-22T04:36:14;100195.3;;;10.77;100.0
64025;BME280;50266;57.446;26.936;2023-05-22T04:37:14;100195.19;;;10.86;100.0
64025;BME280;50266;57.446;26.936;2023-05-22T04:38:14;100194.92;;;10.89;100.0
64025;BME280;50266;57.446;26.936;2023-05-22T04:39:14;100193.25;;;10.9;100.0
64025;BME280;50266;57.446;26.936;2023-05-22T04:40:14;100196.45;;;10.94;100.0
64025;BME280;50266;57.446;26.936;2023-05-22T04:41:14;100195.06;;;10.92;100.0
64025;BME280;50266;57.446;26.936;2023-05-22T04:42:14;100192.48;;;10.87;100.0
64025;BME280;50266;57.446;26.936;2023-05-22T04:43:14;100195.7;;;10.93;100.0
64025;BME280;50266;57.446;26.936;2023-05-22T04:44:14;100198.57;;;10.98;100.0
64025;BME280;50266;57.446;26.936;2023-05-22T04:45:14;100196.46;;;10.99;100.0
64025;BME280;50266;57.446;26.936;2023-05-22T04:46:14;100196.39;;;10.99;100.0
64025;BME280;50266;57.446;26.936;2023-05-22T04:47:14;100193.79;;;10.97;100.0
64025;BME280;50266;57.446;26.936;2023-05-22T04:48:14;100191.2;;;10.86;100.0
64025;BME280;50266;57.446;26.936;2023-05-22T04:49:14;100190.22;;;10.8;100.0
64025;BME280;50266;57.446;26.936;2023-05-22T04:50:14;100191.27;;;10.7;100.0
64025;BME280;50266;57.446;26.936;2023-05-22T04:51:14;100195.36;;;10.75;100.0
64025;BME280;50266;57.446;26.936;2023-05-22T04:52:14;100195.45;;;10.78;100.0
64025;BME280;50266;57.446;26.936;2023-05-22T04:53:14;100194.86;;;10.78;100.0
64025;BME280;50266;57.446;26.936;2023-05-22T04:54:14;100193.89;;;10.87;100.0
64025;BME280;50266;57.446;26.936;2023-05-22T04:55:15;100194.66;;;10.97;100.0
64025;BME280;50266;57.446;26.936;2023-05-22T04:56:14;100195.89;;;11.05;100.0
64025;BME280;50266;57.446;26.936;2023-05-22T04:57:18;100197.57;;;11.03;100.0
64025;BME280;50266;57.446;26.936;2023-05-22T04:58:17;100196.45;;;11.0;100.0
64025;BME280;50266;57.446;26.936;2023-05-22T04:59:18;100200.25;;;11.07;100.0
64025;BME280;50266;57.446;26.936;2023-05-22T05:00:18;100198.12;;;10.99;100.0
64025;BME280;50266;57.446;26.936;2023-05-22T05:01:18;100198.52;;;11.02;100.0
64025;BME280;50266;57.446;26.936;2023-05-22T05:02:18;100195.45;;;11.11;100.0
64025;BME280;50266;57.446;26.936;2023-05-22T05:03:18;100193.73;;;11.25;100.0
64025;BME280;50266;57.446;26.936;2023-05-22T05:04:18;100195.81;;;11.31;100.0
64025;BME280;50266;57.446;26.936;2023-05-22T05:05:18;100193.96;;;11.32;100.0
64025;BME280;50266;57.446;26.936;2023-05-22T05:06:18;100194.52;;;11.47;100.0
64025;BME280;50266;57.446;26.936;2023-05-22T05:07:18;100195.45;;;11.49;100.0
64025;BME280;50266;57.446;26.936;2023-05-22T05:08:18;100199.22;;;11.62;100.0
64025;BME280;50266;57.446;26.936;2023-05-22T05:09:18;100200.73;;;11.84;100.0
64025;BME280;50266;57.446;26.936;2023-05-22T05:10:18;100199.39;;;12.08;100.0
64025;BME280;50266;57.446;26.936;2023-05-22T05:11:18;100191.91;;;11.95;100.0
64025;BME280;50266;57.446;26.936;2023-05-22T05:12:18;100186.43;;;11.94;100.0
64025;BME280;50266;57.446;26.936;2023-05-22T05:13:18;100186.49;;;12.06;100.0
64025;BME280;50266;57.446;26.936;2023-05-22T05:14:18;100185.05;;;12.12;100.0
64025;BME280;50266;57.446;26.936;2023-05-22T05:15:18;100185.02;;;12.2;100.0
64025;BME280;50266;57.446;26.936;2023-05-22T05:16:18;100183.52;;;12.33;100.0
64025;BME280;50266;57.446;26.936;2023-05-22T05:17:18;100185.84;;;12.38;100.0
64025;BME280;50266;57.446;26.936;2023-05-22T05:18:18;100186.62;;;12.5;100.0
64025;BME280;50266;57.446;26.936;2023-05-22T05:19:18;100186.36;;;12.64;100.0